Time;durP1;ratioP1;P1;durP2;ratioP2;P2;SDS_P1;SDS_P2;PMS_P1;PMS_P2;Temp;Humidity;BMP_temperature;BMP_pressure;BME280_temperature;BME280_humidity;BME280_pressure;Samples;Min_cycle;Max_cycle;Signal;HPM_P1;HPM_P2
2021/01/26 03:48:00;;;;;;;4.00;3.22;;;2.00;99.90;;;;;;4856409;26;87370;-83
2021/01/26 03:50:35;;;;;;;3.92;3.00;;;1.90;99.90;;;;;;4913489;28;86585;-84
2021/01/26 03:53:29;;;;;;;3.70;3.30;;;1.90;99.90;;;;;;4914092;28;90428;-83
2021/01/26 03:56:32;;;;;;;4.05;3.63;;;1.80;99.90;;;;;;4912826;28;86951;-83
2021/01/26 03:59:19;;;;;;;4.85;3.55;;;1.80;99.90;;;;;;4914246;28;86898;-82
2021/01/26 04:01:59;;;;;;;4.63;3.65;;;1.90;99.90;;;;;;4906588;28;85932;-84
2021/01/26 04:04:53;;;;;;;6.22;5.63;;;1.80;99.90;;;;;;4929250;28;88908;-84
2021/01/26 04:07:29;;;;;;;6.53;3.47;;;1.80;99.90;;;;;;4931392;28;87691;-84
2021/01/26 04:10:09;;;;;;;4.65;3.92;;;1.80;99.90;;;;;;4929005;28;87460;-83
2021/01/26 04:12:38;;;;;;;4.60;3.55;;;1.80;99.90;;;;;;4915152;28;87641;-83
2021/01/26 04:15:12;;;;;;;5.20;3.80;;;1.80;99.90;;;;;;4901510;28;89737;-84
2021/01/26 04:17:47;;;;;;;4.60;3.50;;;1.80;99.90;;;;;;4946600;28;88971;-83
2021/01/26 04:20:23;;;;;;;5.13;4.38;;;1.80;99.90;;;;;;4926769;28;86908;-83
2021/01/26 04:22:55;;;;;;;4.57;3.67;;;1.80;99.90;;;;;;4931473;28;87011;-81
2021/01/26 04:25:42;;;;;;;5.25;4.20;;;1.80;99.90;;;;;;4932161;28;86793;-82
2021/01/26 04:28:52;;;;;;;5.63;4.40;;;1.80;99.90;;;;;;4927749;28;87328;-86
2021/01/26 04:31:21;;;;;;;4.95;3.78;;;1.80;99.90;;;;;;4930638;28;86782;-84
2021/01/26 04:33:48;;;;;;;4.22;3.50;;;1.80;99.90;;;;;;4922611;28;86671;-84
2021/01/26 04:36:35;;;;;;;4.40;3.65;;;1.70;99.90;;;;;;4939072;28;87873;-84
2021/01/26 04:39:01;;;;;;;5.03;3.97;;;1.70;99.90;;;;;;4913836;28;87365;-82
2021/01/26 04:42:00;;;;;;;5.03;3.80;;;1.70;99.90;;;;;;4937268;28;86743;-85
2021/01/26 04:44:38;;;;;;;4.25;3.50;;;1.70;99.90;;;;;;4875104;28;86808;-84
2021/01/26 04:47:18;;;;;;;4.57;3.97;;;1.70;99.90;;;;;;4929852;28;87003;-84
2021/01/26 04:50:18;;;;;;;4.40;3.72;;;1.70;99.90;;;;;;4953417;28;86935;-84
2021/01/26 04:53:15;;;;;;;4.40;4.00;;;1.60;99.90;;;;;;4936635;28;86154;-84
2021/01/26 04:56:24;;;;;;;4.70;3.40;;;1.70;99.90;;;;;;4945946;28;85345;-82
2021/01/26 04:59:12;;;;;;;5.65;4.30;;;1.70;99.90;;;;;;4954158;28;88371;-82
2021/01/26 05:02:16;;;;;;;6.40;5.80;;;1.20;99.90;;;;;;4933717;28;88813;-83
2021/01/26 05:04:51;;;;;;;6.53;4.18;;;1.60;99.90;;;;;;4925846;28;87988;-83
2021/01/26 05:07:25;;;;;;;6.68;4.70;;;1.50;99.90;;;;;;4962839;28;86454;-82
2021/01/26 05:10:02;;;;;;;7.30;4.15;;;1.50;99.90;;;;;;4934851;28;87234;-82
2021/01/26 05:12:33;;;;;;;4.78;3.70;;;1.50;99.90;;;;;;4921409;28;90194;-80
2021/01/26 05:15:00;;;;;;;;;;;1.50;99.90;;;;;;4951968;28;86654;-81
2021/01/26 05:17:34;;;;;;;5.25;4.25;;;1.50;99.90;;;;;;4952729;28;86317;-82
2021/01/26 05:20:12;;;;;;;4.88;3.95;;;1.50;99.90;;;;;;4948809;28;87190;-83
2021/01/26 05:22:46;;;;;;;6.00;4.10;;;1.60;99.90;;;;;;4944417;28;86487;-86
2021/01/26 05:25:16;;;;;;;6.60;4.50;;;1.50;99.90;;;;;;4946306;28;86697;-83
2021/01/26 05:27:43;;;;;;;6.28;4.50;;;1.60;99.90;;;;;;4948615;28;86956;-84
2021/01/26 05:30:29;;;;;;;6.50;4.97;;;1.60;99.90;;;;;;4928953;28;91916;-83
2021/01/26 05:32:58;;;;;;;6.72;4.03;;;1.70;99.90;;;;;;4929522;28;90365;-84
2021/01/26 05:35:31;;;;;;;6.80;4.78;;;;;;;;;;4946734;28;86916;-85
2021/01/26 05:37:58;;;;;;;7.82;5.22;;;1.70;99.90;;;;;;4931700;28;86588;-85
2021/01/26 05:40:24;;;;;;;7.28;5.93;;;;;;;;;;4947822;28;87730;-84
2021/01/26 05:42:55;;;;;;;6.78;4.57;;;1.90;99.90;;;;;;4946641;28;86552;-84
2021/01/26 05:45:38;;;;;;;7.00;4.75;;;1.90;99.90;;;;;;4943393;28;87094;-83
2021/01/26 05:48:12;;;;;;;6.13;4.72;;;1.90;99.90;;;;;;4947694;28;86371;-83
2021/01/26 05:50:39;;;;;;;6.80;4.90;;;1.90;99.90;;;;;;4943300;28;87645;-83
2021/01/26 05:53:23;;;;;;;7.93;5.32;;;1.90;99.90;;;;;;4939880;28;86483;-81
2021/01/26 05:56:11;;;;;;;7.03;5.18;;;1.90;99.90;;;;;;4951470;28;87931;-84
2021/01/26 05:59:00;;;;;;;9.13;5.00;;;2.00;99.90;;;;;;4964063;28;86893;-84
2021/01/26 06:01:51;;;;;;;7.32;5.47;;;2.00;99.90;;;;;;4944129;28;87967;-85
2021/01/26 06:04:24;;;;;;;9.10;5.95;;;1.90;99.90;;;;;;4962553;28;87386;-85
2021/01/26 06:06:55;;;;;;;8.77;5.35;;;2.00;99.90;;;;;;4931585;28;87095;-85
2021/01/26 06:09:50;;;;;;;6.30;4.97;;;2.00;99.90;;;;;;4935651;28;86510;-87
2021/01/26 06:12:17;;;;;;;8.63;5.47;;;;;;;;;;4944507;28;87222;-84
2021/01/26 06:15:01;;;;;;;7.55;5.13;;;2.10;99.90;;;;;;4954178;28;86033;-84
2021/01/26 06:17:35;;;;;;;8.15;5.70;;;2.00;99.90;;;;;;4953513;28;86945;-87
2021/01/26 06:20:21;;;;;;;8.35;5.47;;;2.10;99.90;;;;;;4948700;28;86939;-83
2021/01/26 06:22:48;;;;;;;8.80;5.28;;;2.00;99.90;;;;;;4955156;28;88175;-83
2021/01/26 06:25:29;;;;;;;8.52;5.50;;;1.90;99.90;;;;;;4955249;28;87886;-84
2021/01/26 06:28:33;;;;;;;9.05;5.10;;;1.90;99.90;;;;;;4946943;28;86849;-84
2021/01/26 06:31:17;;;;;;;7.20;4.90;;;1.80;99.90;;;;;;4930625;28;86695;-85
2021/01/26 06:33:46;;;;;;;8.32;6.75;;;1.90;99.90;;;;;;4931214;28;87266;-84
2021/01/26 06:36:46;;;;;;;8.43;5.43;;;1.90;99.90;;;;;;4946008;28;87371;-84
2021/01/26 06:39:29;;;;;;;7.25;4.47;;;1.90;99.90;;;;;;4944227;28;87445;-86
2021/01/26 06:42:16;;;;;;;6.65;4.35;;;1.90;99.40;;;;;;4945463;28;86071;-82
2021/01/26 06:44:53;;;;;;;8.00;6.03;;;1.90;99.20;;;;;;4945642;28;88756;-82
2021/01/26 06:47:34;;;;;;;7.22;4.78;;;1.90;99.90;;;;;;4927049;28;89399;-84
2021/01/26 06:50:35;;;;;;;7.55;4.43;;;1.90;99.20;;;;;;4944525;28;87654;-83
2021/01/26 06:53:39;;;;;;;6.18;4.43;;;1.90;98.80;;;;;;4943355;28;86994;-85
2021/01/26 06:56:05;;;;;;;10.27;5.10;;;;;;;;;;4942533;28;87229;-87
2021/01/26 06:59:08;;;;;;;7.65;6.85;;;1.80;98.60;;;;;;4942709;28;86888;-83
2021/01/26 07:02:01;;;;;;;7.10;5.75;;;1.90;97.90;;;;;;4951532;28;87245;-85
2021/01/26 07:04:54;;;;;;;7.55;4.85;;;1.80;98.00;;;;;;4955327;28;87497;-85
2021/01/26 07:07:51;;;;;;;7.32;4.50;;;1.80;97.90;;;;;;4925685;28;89583;-83
2021/01/26 07:10:45;;;;;;;7.40;4.00;;;1.80;96.70;;;;;;4945917;28;87194;-84
2021/01/26 07:13:37;;;;;;;7.95;4.63;;;1.70;97.40;;;;;;4939522;28;86934;-85
2021/01/26 07:16:06;;;;;;;6.78;4.10;;;1.80;97.40;;;;;;4955210;28;86855;-85
2021/01/26 07:19:00;;;;;;;6.35;4.63;;;1.80;96.20;;;;;;4934793;28;91806;-84
2021/01/26 07:21:57;;;;;;;9.10;4.47;;;1.80;96.30;;;;;;4946680;28;88096;-85
2021/01/26 07:25:01;;;;;;;6.97;4.25;;;1.70;95.90;;;;;;4954029;28;86529;-84
2021/01/26 07:27:53;;;;;;;5.78;3.67;;;1.70;96.50;;;;;;4940059;28;86456;-83
2021/01/26 07:30:25;;;;;;;5.45;3.83;;;1.60;95.90;;;;;;4937760;28;89244;-83
2021/01/26 07:33:06;;;;;;;7.45;3.88;;;1.50;95.80;;;;;;4957318;28;88135;-84
2021/01/26 07:35:49;;;;;;;5.10;3.10;;;1.50;94.70;;;;;;4956271;28;87271;-84
2021/01/26 07:38:36;;;;;;;5.88;5.30;;;1.80;98.10;;;;;;4928288;28;87864;-85
2021/01/26 07:41:05;;;;;;;4.03;2.95;;;1.40;94.00;;;;;;4947373;28;87210;-85
2021/01/26 07:44:04;;;;;;;7.88;3.13;;;1.40;93.40;;;;;;4957969;28;87041;-84
2021/01/26 07:46:51;;;;;;;2.88;2.10;;;1.40;93.70;;;;;;4956524;28;87513;-83
2021/01/26 07:49:39;;;;;;;3.63;3.30;;;1.10;96.80;;;;;;4957608;28;86096;-84
2021/01/26 07:52:07;;;;;;;2.45;2.17;;;1.10;93.90;;;;;;4959172;28;87037;-84
2021/01/26 07:54:41;;;;;;;5.18;3.08;;;1.00;93.40;;;;;;4958695;28;86617;-85
2021/01/26 07:57:08;;;;;;;2.63;1.95;;;1.00;93.90;;;;;;4949231;28;86386;-84
2021/01/26 07:59:53;;;;;;;2.72;2.35;;;0.90;93.60;;;;;;4946898;28;86279;-85
2021/01/26 08:02:24;;;;;;;2.60;1.95;;;1.00;93.60;;;;;;4958141;28;87222;-85
2021/01/26 08:04:50;;;;;;;5.45;2.55;;;1.00;91.50;;;;;;4957616;28;87068;-83
2021/01/26 08:07:30;;;;;;;2.22;2.05;;;1.00;91.70;;;;;;4959371;28;86568;-84
2021/01/26 08:09:58;;;;;;;4.20;3.73;;;1.30;95.10;;;;;;4959804;28;86231;-84
2021/01/26 08:12:30;;;;;;;3.72;2.17;;;1.00;91.00;;;;;;4961632;28;88217;-84
2021/01/26 08:15:11;;;;;;;2.63;1.83;;;1.00;90.80;;;;;;4959290;28;87957;-85
2021/01/26 08:17:37;;;;;;;;;;;1.10;91.00;;;;;;4961791;28;86222;-85
2021/01/26 08:20:12;;;;;;;2.17;1.63;;;1.00;91.20;;;;;;4951502;28;86723;-85
2021/01/26 08:22:54;;;;;;;3.83;2.17;;;1.00;90.80;;;;;;4954466;28;87735;-84
2021/01/26 08:25:25;;;;;;;5.15;2.20;;;1.10;90.30;;;;;;4946762;28;87343;-86
2021/01/26 08:28:16;;;;;;;2.38;1.67;;;1.10;90.70;;;;;;4950889;28;86825;-84
2021/01/26 08:30:46;;;;;;;1.97;1.33;;;1.10;88.80;;;;;;4949515;28;85998;-84
2021/01/26 08:33:14;;;;;;;2.22;1.73;;;1.10;89.10;;;;;;4952820;28;86904;-85
2021/01/26 08:35:43;;;;;;;1.23;1.08;;;1.10;90.20;;;;;;4954224;28;87080;-82
2021/01/26 08:38:10;;;;;;;2.33;1.50;;;1.00;91.50;;;;;;4952952;28;87559;-83
2021/01/26 08:40:35;;;;;;;2.95;2.30;;;1.00;91.90;;;;;;4945655;28;86698;-83
2021/01/26 08:43:05;;;;;;;2.42;1.60;;;1.00;90.60;;;;;;4944745;28;87306;-84
2021/01/26 08:45:33;;;;;;;1.67;1.48;;;1.10;90.40;;;;;;4951649;28;86920;-84
2021/01/26 08:48:02;;;;;;;2.33;1.42;;;1.10;90.00;;;;;;4950029;28;86692;-84
2021/01/26 08:50:36;;;;;;;1.77;1.63;;;1.20;86.40;;;;;;4950500;28;86996;-85
2021/01/26 08:53:32;;;;;;;3.60;1.77;;;1.30;85.90;;;;;;4937099;28;87624;-85
2021/01/26 08:56:03;;;;;;;1.35;1.25;;;1.30;87.20;;;;;;4943370;28;86277;-83
2021/01/26 08:58:40;;;;;;;2.55;1.63;;;1.30;86.30;;;;;;4951017;28;86250;-82
2021/01/26 09:01:22;;;;;;;1.50;1.40;;;1.30;85.20;;;;;;4946745;28;86570;-83
2021/01/26 09:03:50;;;;;;;3.90;2.45;;;1.30;83.90;;;;;;4941680;28;89353;-83
2021/01/26 09:06:43;;;;;;;2.17;1.98;;;1.40;86.90;;;;;;4951783;28;88317;-85
2021/01/26 09:09:18;;;;;;;1.63;1.38;;;1.40;86.80;;;;;;4927252;28;86871;-84
2021/01/26 09:11:44;;;;;;;1.52;1.40;;;1.40;87.70;;;;;;4950881;28;86696;-83
2021/01/26 09:14:21;;;;;;;4.25;3.85;;;2.20;92.60;;;;;;4946125;28;87993;-83
2021/01/26 09:17:00;;;;;;;2.50;1.77;;;1.50;82.60;;;;;;4943213;28;86555;-85
2021/01/26 09:19:42;;;;;;;2.58;1.92;;;1.60;82.50;;;;;;4919381;28;86623;-85
2021/01/26 09:22:13;;;;;;;4.68;2.35;;;1.70;81.70;;;;;;4947012;28;85543;-83
2021/01/26 09:24:40;;;;;;;3.13;2.22;;;1.70;83.90;;;;;;4953780;28;87228;-86
2021/01/26 09:27:18;;;;;;;1.45;1.35;;;1.70;81.10;;;;;;4947734;28;87998;-85
2021/01/26 09:29:44;;;;;;;1.60;1.17;;;1.80;80.50;;;;;;4937854;28;87838;-83
2021/01/26 09:32:10;;;;;;;1.77;1.67;;;1.80;80.80;;;;;;4950460;28;86989;-86
2021/01/26 09:34:36;;;;;;;2.15;1.80;;;;;;;;;;4952684;28;86730;-85
2021/01/26 09:37:20;;;;;;;1.95;1.30;;;1.70;83.30;;;;;;4945077;28;87358;-84
2021/01/26 09:39:46;;;;;;;1.15;1.05;;;1.70;90.20;;;;;;4945586;28;86199;-86
2021/01/26 09:42:23;;;;;;;1.67;1.58;;;1.60;89.30;;;;;;4929317;28;86587;-85
2021/01/26 09:45:00;;;;;;;1.00;1.00;;;1.60;85.40;;;;;;4946697;28;87292;-84
2021/01/26 09:47:28;;;;;;;3.50;2.08;;;1.60;89.90;;;;;;4953467;28;86941;-85
2021/01/26 09:50:13;;;;;;;3.47;2.22;;;1.50;90.10;;;;;;4937732;28;86892;-82
2021/01/26 09:52:40;;;;;;;3.92;2.65;;;1.50;91.00;;;;;;4926781;28;87018;-85
2021/01/26 09:55:10;;;;;;;3.10;1.85;;;1.50;91.70;;;;;;4945204;28;87599;-85
2021/01/26 09:57:38;;;;;;;3.33;2.08;;;1.50;92.20;;;;;;4955134;28;88311;-84
2021/01/26 10:00:14;;;;;;;4.07;2.42;;;1.50;91.90;;;;;;4943909;28;86849;-84
2021/01/26 10:02:42;;;;;;;3.75;2.40;;;1.50;92.20;;;;;;4954335;28;86578;-86
2021/01/26 10:05:11;;;;;;;3.58;1.75;;;1.60;91.70;;;;;;4955714;28;86647;-85
2021/01/26 10:07:36;;;;;;;4.38;2.22;;;1.60;92.00;;;;;;4955457;28;87003;-85
2021/01/26 10:10:19;;;;;;;4.38;2.08;;;1.60;91.30;;;;;;4937246;28;86150;-85
2021/01/26 10:12:45;;;;;;;4.72;1.98;;;;;;;;;;4937957;28;85564;-85
2021/01/26 10:15:30;;;;;;;3.67;2.83;;;1.70;91.20;;;;;;4955327;28;86793;-85
2021/01/26 10:17:56;;;;;;;2.92;2.15;;;;;;;;;;4932883;28;88103;-85
2021/01/26 10:20:55;;;;;;;4.63;2.10;;;1.90;89.30;;;;;;4954583;28;87881;-86
2021/01/26 10:23:42;;;;;;;1.65;1.55;;;2.00;84.70;;;;;;4937527;28;87134;-86
2021/01/26 10:26:27;;;;;;;2.50;1.23;;;2.00;85.60;;;;;;4935719;28;90349;-84
2021/01/26 10:29:10;;;;;;;1.00;0.90;;;2.00;81.70;;;;;;4955093;28;86639;-85
2021/01/26 10:31:59;;;;;;;2.45;1.40;;;1.90;79.00;;;;;;4947979;28;86932;-84
2021/01/26 10:34:30;;;;;;;1.42;1.33;;;2.00;81.00;;;;;;4930288;28;86615;-85
2021/01/26 10:37:07;;;;;;;3.40;1.42;;;1.90;76.60;;;;;;4959092;28;86905;-83
2021/01/26 10:39:33;;;;;;;2.60;1.75;;;;;;;;;;4947105;28;87244;-85
2021/01/26 10:42:14;;;;;;;1.77;1.50;;;2.00;76.60;;;;;;4956815;28;86993;-84
2021/01/26 10:44:51;;;;;;;2.65;1.77;;;2.20;75.50;;;;;;4948678;28;86883;-85
2021/01/26 10:47:39;;;;;;;2.13;1.67;;;2.30;74.40;;;;;;4943657;28;88636;-84
2021/01/26 10:50:13;;;;;;;2.03;1.83;;;2.30;74.50;;;;;;4935016;28;90055;-85
2021/01/26 10:52:51;;;;;;;4.50;1.55;;;2.40;72.20;;;;;;4931640;28;86743;-86
2021/01/26 10:55:20;;;;;;;1.77;1.65;;;2.40;71.60;;;;;;4957118;28;86865;-86
2021/01/26 10:57:47;;;;;;;4.35;1.20;;;2.40;72.70;;;;;;4941322;28;90967;-85
2021/01/26 11:00:22;;;;;;;1.30;1.05;;;2.50;70.80;;;;;;4927966;28;88634;-85
2021/01/26 11:02:49;;;;;;;1.38;1.25;;;2.50;71.30;;;;;;4942773;28;86868;-85
2021/01/26 11:05:16;;;;;;;3.38;1.58;;;2.50;69.30;;;;;;4943600;28;86652;-85
2021/01/26 11:07:42;;;;;;;2.70;1.60;;;2.70;71.10;;;;;;4958536;28;87393;-84
2021/01/26 11:10:09;;;;;;;2.42;1.88;;;2.70;69.40;;;;;;4955690;28;86999;-83
2021/01/26 11:12:39;;;;;;;1.50;1.40;;;2.80;69.40;;;;;;4956363;28;87814;-84
2021/01/26 11:15:17;;;;;;;1.77;1.30;;;2.70;68.70;;;;;;4951409;28;86965;-84
2021/01/26 11:17:44;;;;;;;1.50;1.40;;;2.70;68.70;;;;;;4950860;28;87202;-85
2021/01/26 11:20:11;;;;;;;1.48;1.38;;;2.70;69.30;;;;;;4936760;28;87496;-82
2021/01/26 11:22:37;;;;;;;2.03;1.48;;;;;;;;;;4933112;28;87304;-86
2021/01/26 11:25:06;;;;;;;1.38;1.20;;;1.30;70.00;;;;;;4954619;28;86660;-84
2021/01/26 11:27:32;;;;;;;1.40;1.20;;;2.70;70.40;;;;;;4939026;28;89992;-84
2021/01/26 11:29:57;;;;;;;1.85;1.50;;;2.60;71.60;;;;;;4945478;28;86936;-85
2021/01/26 11:32:24;;;;;;;2.58;1.58;;;2.70;71.90;;;;;;4946609;28;86720;-86
2021/01/26 11:34:50;;;;;;;2.15;1.73;;;;;;;;;;4937800;28;87306;-87
2021/01/26 11:37:17;;;;;;;3.58;3.25;;;;;;;;;;4935729;28;90174;-86
2021/01/26 11:39:43;;;;;;;2.63;1.80;;;;;;;;;;4950591;28;88178;-86
2021/01/26 11:42:09;;;;;;;2.80;2.00;;;2.70;71.70;;;;;;4953819;28;86216;-90
2021/01/26 11:44:35;;;;;;;1.95;1.50;;;2.60;72.10;;;;;;4937046;28;86916;-88
2021/01/26 11:47:02;;;;;;;2.60;2.15;;;2.60;72.30;;;;;;4955906;28;86544;-82
2021/01/26 11:49:28;;;;;;;2.20;1.63;;;2.60;73.90;;;;;;4950091;28;86415;-87
2021/01/26 11:51:53;;;;;;;2.85;2.20;;;2.50;73.40;;;;;;4938480;28;86974;-86
2021/01/26 11:54:22;;;;;;;2.17;1.83;;;2.50;73.30;;;;;;4927501;28;85916;-84
2021/01/26 11:56:48;;;;;;;1.77;1.50;;;;;;;;;;4951420;28;86815;-85
2021/01/26 11:59:45;;;;;;;1.88;1.40;;;2.50;73.40;;;;;;4934953;28;87000;-86
2021/01/26 12:02:12;;;;;;;1.63;1.30;;;;;;;;;;4943179;28;87266;-86
2021/01/26 12:04:37;;;;;;;1.63;1.52;;;2.50;72.60;;;;;;4940231;28;86616;-86
2021/01/26 12:07:03;;;;;;;2.13;1.80;;;2.50;73.60;;;;;;4951932;28;86965;-85
2021/01/26 12:09:29;;;;;;;2.30;1.92;;;2.70;73.80;;;;;;4935556;28;88132;-86
2021/01/26 12:11:56;;;;;;;2.80;2.38;;;2.80;73.40;;;;;;4929898;28;86982;-87
2021/01/26 12:14:34;;;;;;;2.85;2.03;;;2.90;73.90;;;;;;4957072;28;86291;-85
2021/01/26 12:17:02;;;;;;;2.63;2.40;;;3.00;72.60;;;;;;4942312;28;86719;-87
2021/01/26 12:19:49;;;;;;;4.97;1.90;;;3.00;71.40;;;;;;4929688;28;86354;-87
2021/01/26 12:22:17;;;;;;;2.03;1.83;;;;;;;;;;4950133;28;86146;-87
2021/01/26 12:24:45;;;;;;;3.05;1.98;;;3.00;70.80;;;;;;4955869;28;86429;-86
2021/01/26 12:27:16;;;;;;;2.20;1.98;;;;;;;;;;4920766;28;88917;-86
2021/01/26 12:29:43;;;;;;;1.42;1.27;;;;;;;;;;4930642;28;90334;-87
2021/01/26 12:32:10;;;;;;;1.73;1.58;;;;;;;;;;4938328;28;86750;-85
2021/01/26 12:35:00;;;;;;;1.90;1.65;;;3.00;71.20;;;;;;4936407;28;86913;-86
2021/01/26 12:37:38;;;;;;;1.55;1.23;;;3.00;72.00;;;;;;4932690;28;86695;-86
2021/01/26 12:40:06;;;;;;;2.35;1.77;;;2.90;70.90;;;;;;4922841;28;86664;-85
2021/01/26 12:42:33;;;;;;;2.97;2.88;;;;;;;;;;4931240;28;86469;-86
2021/01/26 12:45:03;;;;;;;2.35;2.10;;;3.00;70.40;;;;;;4916717;28;85671;-87
2021/01/26 12:47:29;;;;;;;2.72;2.40;;;;;;;;;;4913366;28;88886;-88
2021/01/26 12:49:57;;;;;;;2.28;1.70;;;;;;;;;;4934021;28;87691;-87
2021/01/26 12:52:26;;;;;;;2.75;1.58;;;3.40;70.40;;;;;;4917042;28;88165;-87
2021/01/26 12:54:56;;;;;;;2.58;2.17;;;;;;;;;;4934938;28;86854;-86
2021/01/26 12:57:23;;;;;;;1.90;1.80;;;3.40;70.20;;;;;;4935886;28;87025;-87
2021/01/26 12:59:51;;;;;;;2.47;1.60;;;;;;;;;;4935956;28;86673;-87
2021/01/26 13:02:23;;;;;;;3.85;1.92;;;4.10;69.10;;;;;;4927611;28;86225;-87
2021/01/26 13:04:52;;;;;;;2.60;1.73;;;;;;;;;;4917538;28;86341;-88
2021/01/26 13:07:21;;;;;;;4.28;2.05;;;;;;;;;;4935743;28;86965;-88
2021/01/26 13:10:03;;;;;;;3.25;1.98;;;4.30;64.90;;;;;;4938740;28;87410;-86
2021/01/26 13:12:29;;;;;;;2.60;1.85;;;;;;;;;;4935003;28;86950;-86
2021/01/26 13:14:55;;;;;;;3.25;2.20;;;;;;;;;;4934737;28;86486;-88
2021/01/26 13:17:22;;;;;;;2.40;2.20;;;4.30;64.90;;;;;;4921129;28;87892;-87
2021/01/26 13:19:49;;;;;;;4.07;3.78;;;4.30;64.30;;;;;;4933771;28;88630;-88
2021/01/26 13:22:16;;;;;;;2.25;1.85;;;;;;;;;;4928624;28;86320;-88
2021/01/26 13:24:45;;;;;;;3.78;2.25;;;4.40;62.70;;;;;;4929017;28;87124;-88
2021/01/26 13:27:14;;;;;;;2.53;1.98;;;4.50;64.20;;;;;;4934953;28;88619;-88
2021/01/26 13:29:41;;;;;;;4.65;2.83;;;;;;;;;;4932923;28;87059;-88
2021/01/26 13:32:11;;;;;;;2.65;1.80;;;4.60;63.80;;;;;;4935650;28;87082;-89
2021/01/26 13:34:38;;;;;;;2.40;2.00;;;;;;;;;;4936318;28;86298;-88
2021/01/26 13:37:04;;;;;;;2.78;2.00;;;;;;;;;;4957629;28;86984;-88
2021/01/26 13:39:35;;;;;;;2.25;1.83;;;4.90;62.30;;;;;;4950518;28;86179;-88
2021/01/26 13:42:01;;;;;;;2.83;2.28;;;;;;;;;;4933436;28;87830;-88
2021/01/26 13:44:28;;;;;;;2.70;2.05;;;;;;;;;;4933341;28;86408;-88
2021/01/26 13:46:57;;;;;;;2.90;2.10;;;4.50;62.50;;;;;;4913118;28;87140;-88
2021/01/26 13:49:30;;;;;;;4.93;4.53;;;4.70;61.80;;;;;;4911731;28;88699;-88
2021/01/26 13:51:59;;;;;;;3.40;2.53;;;4.70;62.40;;;;;;4904573;28;86282;-88
2021/01/26 13:54:25;;;;;;;2.97;1.95;;;;;;;;;;4902898;28;87302;-88
2021/01/26 13:56:53;;;;;;;6.63;2.38;;;4.60;61.60;;;;;;4906127;28;87084;-87
2021/01/26 13:59:34;;;;;;;5.45;3.22;;;4.60;61.80;;;;;;4926801;28;86452;-86
2021/01/26 14:02:00;;;;;;;3.00;2.47;;;4.10;62.10;;;;;;4911811;28;86662;-87
2021/01/26 14:04:26;;;;;;;3.58;2.40;;;;;;;;;;4913117;28;87518;-85
2021/01/26 14:06:53;;;;;;;4.28;2.90;;;3.80;63.50;;;;;;4949473;28;89666;-88
2021/01/26 14:09:29;;;;;;;3.45;2.78;;;3.70;63.90;;;;;;4923882;28;88435;-87
2021/01/26 14:11:56;;;;;;;2.88;2.00;;;;;;;;;;4940880;28;86915;-88
2021/01/26 14:14:24;;;;;;;2.63;2.33;;;3.60;63.40;;;;;;4924951;28;86325;-88
2021/01/26 14:16:53;;;;;;;3.60;2.33;;;3.50;64.00;;;;;;4920095;28;89645;-87
2021/01/26 14:19:19;;;;;;;4.35;3.95;;;;;;;;;;4942097;28;86204;-87
2021/01/26 14:21:46;;;;;;;4.05;3.72;;;;;;;;;;4918874;28;86276;-87
2021/01/26 14:24:14;;;;;;;3.28;2.17;;;3.40;64.00;;;;;;4933295;28;85583;-87
2021/01/26 14:26:42;;;;;;;5.68;2.72;;;3.30;64.00;;;;;;4917963;28;88909;-87
2021/01/26 14:34:21;;;;;;;2.67;2.35;;;;;;;;;;5003443;23;86411;-85
2021/01/26 14:36:47;;;;;;;3.20;2.00;;;;;;;;;;5411152;22;89474;-85
2021/01/26 14:39:14;;;;;;;1.98;1.67;;;;;;;;;;4986209;28;87030;-85
2021/01/26 14:41:44;;;;;;;2.35;2.03;;;3.40;64.20;;;;;;4959298;28;86706;-88
2021/01/26 14:44:10;;;;;;;2.80;2.10;;;;;;;;;;4958144;28;86329;-87
2021/01/26 14:46:37;;;;;;;3.75;2.05;;;;;;;;;;4978724;28;87723;-86
2021/01/26 14:49:30;;;;;;;2.28;2.05;;;3.50;65.10;;;;;;4986171;28;86375;-86
2021/01/26 14:51:57;;;;;;;3.30;3.10;;;;;;;;;;4984305;28;86569;-86
2021/01/26 14:54:24;;;;;;;2.28;1.63;;;3.30;64.10;;;;;;4976994;28;86327;-87
2021/01/26 14:56:52;;;;;;;2.10;1.73;;;3.30;64.60;;;;;;4994629;28;88884;-87
2021/01/26 15:04:40;;;;;;;3.30;1.95;;;;;;;;;;4997365;22;86555;-86
2021/01/26 15:07:07;;;;;;;2.47;2.05;;;;;;;;;;4966489;28;89866;-87
2021/01/26 15:09:33;;;;;;;4.45;4.15;;;;;;;;;;4992461;28;86682;-87
2021/01/26 15:12:03;;;;;;;2.35;2.15;;;3.10;65.00;;;;;;4972894;28;86730;-87
2021/01/26 15:14:46;;;;;;;1.95;1.60;;;3.10;66.30;;;;;;4991223;28;85568;-87
2021/01/26 15:17:16;;;;;;;3.47;2.10;;;3.10;67.20;;;;;;4959879;28;87885;-87
2021/01/26 15:22:40;;;;;;;2.22;1.80;;;3.00;66.30;;;;;;5097531;22;87955;-87
2021/01/26 15:25:22;;;;;;;3.17;2.10;;;3.00;66.40;;;;;;4954059;28;86407;-87
2021/01/26 15:27:55;;;;;;;3.25;2.40;;;3.00;66.20;;;;;;4959299;28;87666;-87
2021/01/26 15:30:23;;;;;;;2.08;1.90;;;3.00;66.40;;;;;;4955538;28;86675;-87
2021/01/26 15:32:52;;;;;;;1.83;1.65;;;2.90;64.70;;;;;;4958942;28;86763;-87
2021/01/26 15:35:24;;;;;;;2.85;2.47;;;3.00;65.40;;;;;;4959211;28;86471;-87
2021/01/26 15:37:56;;;;;;;2.60;1.70;;;3.00;65.80;;;;;;4959775;28;88048;-87
2021/01/26 15:43:05;;;;;;;4.78;4.38;;;3.00;65.20;;;;;;5546057;22;89381;-87
2021/01/26 15:45:34;;;;;;;3.42;2.17;;;;;;;;;;4955089;28;86275;-87
2021/01/26 15:48:02;;;;;;;3.72;2.80;;;3.10;64.30;;;;;;4956748;28;88730;-88
2021/01/26 15:50:59;;;;;;;4.88;2.88;;;3.10;65.00;;;;;;4923299;28;87636;-86
2021/01/26 15:53:27;;;;;;;2.78;2.47;;;3.10;65.20;;;;;;4916006;28;86771;-88
2021/01/26 15:56:11;;;;;;;2.63;2.40;;;3.10;65.20;;;;;;4911362;28;86834;-87
2021/01/26 15:59:00;;;;;;;2.47;2.20;;;3.10;64.60;;;;;;4905646;28;86944;-86
2021/01/26 16:01:32;;;;;;;3.95;2.30;;;;;;;;;;4885487;28;86413;-86
2021/01/26 16:03:59;;;;;;;2.45;1.77;;;;;;;;;;4909721;28;87039;-86
2021/01/26 16:06:34;;;;;;;2.22;1.88;;;3.10;63.00;;;;;;4904039;28;85608;-87
2021/01/26 16:09:11;;;;;;;4.18;2.53;;;3.10;64.60;;;;;;4898636;28;86763;-86
2021/01/26 16:11:40;;;;;;;3.22;2.10;;;3.00;64.00;;;;;;4900764;28;87130;-89
2021/01/26 16:14:13;;;;;;;2.60;1.80;;;3.00;64.70;;;;;;4876008;28;87671;-87
2021/01/26 16:16:39;;;;;;;2.42;2.00;;;;;;;;;;4886538;28;86780;-87
2021/01/26 16:19:11;;;;;;;4.00;1.85;;;2.90;64.60;;;;;;4901052;28;86761;-87
2021/01/26 16:21:42;;;;;;;2.17;1.90;;;2.90;65.60;;;;;;4900571;28;87497;-87
2021/01/26 16:24:13;;;;;;;4.00;2.85;;;2.90;64.10;;;;;;4901530;28;86228;-86
2021/01/26 16:26:41;;;;;;;;;;;2.90;66.00;;;;;;4904965;28;86741;-87
2021/01/26 16:29:07;;;;;;;9.93;4.47;;;;;;;;;;4897013;28;87863;-87
2021/01/26 16:31:37;;;;;;;4.32;2.70;;;2.80;64.30;;;;;;4911591;28;86420;-88
2021/01/26 16:34:03;;;;;;;4.32;2.90;;;;;;;;;;4907913;28;86744;-88
2021/01/26 16:36:30;;;;;;;3.88;2.92;;;2.80;65.10;;;;;;4912509;28;86577;-87
2021/01/26 16:38:57;;;;;;;4.07;1.88;;;;;;;;;;4905007;28;88903;-88
2021/01/26 16:41:23;;;;;;;2.28;1.92;;;;;;;;;;4900879;28;88467;-88
2021/01/26 16:43:50;;;;;;;3.78;2.88;;;2.70;63.60;;;;;;4916180;28;86306;-87
2021/01/26 16:46:18;;;;;;;3.63;2.53;;;2.70;65.40;;;;;;4941134;28;87349;-88
2021/01/26 16:48:58;;;;;;;2.78;1.90;;;2.60;65.50;;;;;;4913353;28;87294;-88
2021/01/26 16:51:35;;;;;;;4.32;4.03;;;2.60;64.80;;;;;;4951089;28;87815;-87
2021/01/26 16:54:04;;;;;;;3.95;2.20;;;2.60;65.70;;;;;;4957833;28;86193;-86
2021/01/26 16:56:32;;;;;;;2.63;1.77;;;;;;;;;;4939557;28;86112;-89
2021/01/26 16:58:58;;;;;;;2.72;2.13;;;;;;;;;;4954308;28;88145;-89
2021/01/26 17:01:26;;;;;;;5.07;4.65;;;;;;;;;;4953511;28;87701;-88
2021/01/26 17:04:00;;;;;;;3.55;2.70;;;2.50;65.70;;;;;;4952472;28;87534;-88
2021/01/26 17:06:27;;;;;;;2.70;2.25;;;2.40;66.40;;;;;;4940816;28;86456;-88
2021/01/26 17:09:09;;;;;;;3.88;2.47;;;2.40;66.90;;;;;;4951452;28;87001;-88
2021/01/26 17:11:49;;;;;;;3.95;2.85;;;2.40;67.20;;;;;;4946753;28;86932;-89
2021/01/26 17:14:20;;;;;;;3.33;3.03;;;;;;;;;;4951154;28;87108;-87
2021/01/26 17:16:49;;;;;;;5.13;2.25;;;;;;;;;;4958635;28;86304;-88
2021/01/26 17:19:29;;;;;;;4.25;3.70;;;2.40;66.30;;;;;;4956132;28;87675;-86
2021/01/26 17:22:05;;;;;;;3.85;2.70;;;2.30;66.80;;;;;;4962243;28;86448;-87
2021/01/26 17:24:37;;;;;;;4.15;2.30;;;2.40;66.50;;;;;;4940446;28;86675;-87
2021/01/26 17:27:05;;;;;;;4.07;2.33;;;2.30;66.20;;;;;;4955070;28;86859;-87
2021/01/26 17:29:31;;;;;;;2.50;2.13;;;2.30;66.50;;;;;;4941646;28;90105;-87
2021/01/26 17:31:59;;;;;;;7.10;2.83;;;2.30;66.00;;;;;;4955255;28;89547;-87
2021/01/26 17:34:25;;;;;;;2.25;1.80;;;;;;;;;;4944267;28;86826;-86
2021/01/26 17:36:52;;;;;;;2.10;1.58;;;;;;;;;;4954961;28;86613;-87
2021/01/26 17:39:20;;;;;;;3.92;3.40;;;2.20;65.30;;;;;;4973497;28;88826;-86
2021/01/26 17:41:47;;;;;;;2.83;2.72;;;;;;;;;;4957302;28;87222;-87
2021/01/26 17:44:16;;;;;;;2.08;1.83;;;2.20;65.40;;;;;;4955843;28;87056;-87
2021/01/26 17:46:42;;;;;;;1.98;1.77;;;;;;;;;;4956357;28;85506;-87
2021/01/26 17:49:15;;;;;;;2.72;1.75;;;2.20;64.60;;;;;;4968477;28;86931;-87
2021/01/26 17:51:42;;;;;;;3.83;1.92;;;;;;;;;;4943290;28;87655;-87
2021/01/26 17:54:21;;;;;;;2.13;1.63;;;2.30;67.20;;;;;;4959639;28;87205;-87
2021/01/26 17:56:56;;;;;;;3.75;2.42;;;;;;;;;;4962294;28;86247;-87
2021/01/26 17:59:22;;;;;;;6.40;2.85;;;;;;;;;;4966890;28;87647;-87